sensor_id;sensor_type;location;lat;lon;timestamp;pressure;altitude;pressure_sealevel;temperature;humidity
40794;BME280;26502;51.886;15.604;2024-01-25T00:04:59;100561.34;;;6.01;79.52
40794;BME280;26502;51.886;15.604;2024-01-25T00:10:25;100545.70;;;5.96;79.95
40794;BME280;26502;51.886;15.604;2024-01-25T00:15:51;100544.60;;;5.87;80.06
40794;BME280;26502;51.886;15.604;2024-01-25T00:21:17;100544.02;;;5.90;80.28
40794;BME280;26502;51.886;15.604;2024-01-25T00:26:43;100543.34;;;6.01;79.95
40794;BME280;26502;51.886;15.604;2024-01-25T00:32:09;100533.46;;;6.14;79.57
40794;BME280;26502;51.886;15.604;2024-01-25T00:37:37;100536.80;;;6.24;78.90
40794;BME280;26502;51.886;15.604;2024-01-25T00:43:03;100529.38;;;6.36;78.01
40794;BME280;26502;51.886;15.604;2024-01-25T00:48:30;100528.27;;;6.49;76.64
40794;BME280;26502;51.886;15.604;2024-01-25T00:53:57;100536.63;;;6.64;75.15
40794;BME280;26502;51.886;15.604;2024-01-25T00:59:26;100530.78;;;6.76;74.01
40794;BME280;26502;51.886;15.604;2024-01-25T01:04:53;100527.70;;;6.89;72.44
40794;BME280;26502;51.886;15.604;2024-01-25T01:10:19;100529.92;;;6.92;71.49
40794;BME280;26502;51.886;15.604;2024-01-25T01:15:44;100514.67;;;7.04;70.14
40794;BME280;26502;51.886;15.604;2024-01-25T01:21:11;100510.61;;;7.13;68.59
40794;BME280;26502;51.886;15.604;2024-01-25T01:26:36;100514.06;;;7.17;67.66
40794;BME280;26502;51.886;15.604;2024-01-25T01:32:03;100512.73;;;7.13;67.69
40794;BME280;26502;51.886;15.604;2024-01-25T01:37:31;100525.77;;;7.13;67.09
40794;BME280;26502;51.886;15.604;2024-01-25T01:43:01;100516.70;;;7.18;66.61
40794;BME280;26502;51.886;15.604;2024-01-25T01:48:26;100520.20;;;7.19;66.23
40794;BME280;26502;51.886;15.604;2024-01-25T01:53:52;100526.29;;;7.24;65.35
40794;BME280;26502;51.886;15.604;2024-01-25T01:59:19;100520.20;;;7.28;65.12
40794;BME280;26502;51.886;15.604;2024-01-25T02:04:45;100524.69;;;7.24;65.79
40794;BME280;26502;51.886;15.604;2024-01-25T02:10:11;100526.14;;;7.22;65.94
40794;BME280;26502;51.886;15.604;2024-01-25T02:15:37;100519.99;;;7.20;65.81
40794;BME280;26502;51.886;15.604;2024-01-25T02:21:03;100521.24;;;7.20;65.84
40794;BME280;26502;51.886;15.604;2024-01-25T02:26:29;100523.84;;;7.23;65.57
40794;BME280;26502;51.886;15.604;2024-01-25T02:31:55;100525.17;;;7.17;65.91
40794;BME280;26502;51.886;15.604;2024-01-25T02:37:21;100532.06;;;7.17;66.25
40794;BME280;26502;51.886;15.604;2024-01-25T02:42:48;100525.15;;;7.18;66.32
40794;BME280;26502;51.886;15.604;2024-01-25T02:48:14;100535.33;;;7.22;66.04
40794;BME280;26502;51.886;15.604;2024-01-25T02:53:40;100535.30;;;7.23;66.10
40794;BME280;26502;51.886;15.604;2024-01-25T02:59:06;100536.53;;;7.24;65.76
40794;BME280;26502;51.886;15.604;2024-01-25T03:04:33;100536.61;;;7.20;66.09
40794;BME280;26502;51.886;15.604;2024-01-25T03:09:59;100535.87;;;7.21;65.66
40794;BME280;26502;51.886;15.604;2024-01-25T03:15:25;100529.20;;;7.28;65.30
40794;BME280;26502;51.886;15.604;2024-01-25T03:20:51;100526.96;;;7.33;64.86
40794;BME280;26502;51.886;15.604;2024-01-25T03:26:18;100535.18;;;7.37;64.85
40794;BME280;26502;51.886;15.604;2024-01-25T03:31:46;100536.08;;;7.37;64.72
40794;BME280;26502;51.886;15.604;2024-01-25T03:37:12;100529.27;;;7.33;64.97
40794;BME280;26502;51.886;15.604;2024-01-25T03:42:38;100498.09;;;7.29;65.32
40794;BME280;26502;51.886;15.604;2024-01-25T03:48:05;100509.31;;;7.24;65.77
40794;BME280;26502;51.886;15.604;2024-01-25T03:53:31;100523.42;;;7.17;66.32
40794;BME280;26502;51.886;15.604;2024-01-25T03:58:57;100524.01;;;7.06;67.01
40794;BME280;26502;51.886;15.604;2024-01-25T04:04:23;100525.20;;;6.99;67.59
40794;BME280;26502;51.886;15.604;2024-01-25T04:09:49;100540.92;;;6.90;67.74
40794;BME280;26502;51.886;15.604;2024-01-25T04:15:15;100539.60;;;6.94;67.75
40794;BME280;26502;51.886;15.604;2024-01-25T04:20:43;100534.22;;;6.98;67.46
40794;BME280;26502;51.886;15.604;2024-01-25T04:26:10;100525.55;;;6.99;67.25
40794;BME280;26502;51.886;15.604;2024-01-25T04:31:36;100531.56;;;6.99;67.22
40794;BME280;26502;51.886;15.604;2024-01-25T04:37:07;100539.26;;;6.93;67.31
40794;BME280;26502;51.886;15.604;2024-01-25T04:42:33;100527.44;;;6.93;67.00
40794;BME280;26502;51.886;15.604;2024-01-25T04:47:59;100534.65;;;6.95;66.91
40794;BME280;26502;51.886;15.604;2024-01-25T04:53:25;100537.67;;;6.94;66.57
40794;BME280;26502;51.886;15.604;2024-01-25T04:58:51;100531.41;;;6.97;66.13
40794;BME280;26502;51.886;15.604;2024-01-25T05:04:18;100549.08;;;6.96;65.97
40794;BME280;26502;51.886;15.604;2024-01-25T05:09:44;100552.53;;;6.92;65.70
40794;BME280;26502;51.886;15.604;2024-01-25T05:15:12;100567.75;;;6.90;65.66
40794;BME280;26502;51.886;15.604;2024-01-25T05:20:38;100573.96;;;6.88;65.38
40794;BME280;26502;51.886;15.604;2024-01-25T05:26:07;100577.13;;;6.89;65.19
40794;BME280;26502;51.886;15.604;2024-01-25T05:31:33;100594.34;;;6.94;64.69
40794;BME280;26502;51.886;15.604;2024-01-25T05:36:59;100602.79;;;6.95;64.71
40794;BME280;26502;51.886;15.604;2024-01-25T05:42:25;100622.42;;;6.92;64.76
40794;BME280;26502;51.886;15.604;2024-01-25T05:47:51;100619.88;;;6.97;64.22
40794;BME280;26502;51.886;15.604;2024-01-25T05:53:17;100623.11;;;6.94;64.31
40794;BME280;26502;51.886;15.604;2024-01-25T05:58:44;100622.98;;;6.92;64.25
40794;BME280;26502;51.886;15.604;2024-01-25T06:04:10;100635.40;;;6.88;64.39
40794;BME280;26502;51.886;15.604;2024-01-25T06:09:36;100623.55;;;6.89;64.21
40794;BME280;26502;51.886;15.604;2024-01-25T06:15:03;100645.06;;;6.91;64.15
40794;BME280;26502;51.886;15.604;2024-01-25T06:20:29;100646.53;;;6.87;64.24
40794;BME280;26502;51.886;15.604;2024-01-25T06:25:57;100678.52;;;6.85;64.28
40794;BME280;26502;51.886;15.604;2024-01-25T06:31:23;100689.38;;;6.80;64.85
40794;BME280;26502;51.886;15.604;2024-01-25T06:36:50;100694.66;;;6.69;65.25
40794;BME280;26502;51.886;15.604;2024-01-25T06:42:16;100703.79;;;6.63;65.79
40794;BME280;26502;51.886;15.604;2024-01-25T06:47:42;100708.71;;;6.62;65.66
40794;BME280;26502;51.886;15.604;2024-01-25T06:53:08;100700.95;;;6.74;65.04
40794;BME280;26502;51.886;15.604;2024-01-25T06:58:34;100705.91;;;6.73;65.13
40794;BME280;26502;51.886;15.604;2024-01-25T07:04:00;100702.27;;;6.68;64.98
40794;BME280;26502;51.886;15.604;2024-01-25T07:09:27;100745.01;;;6.66;65.10
40794;BME280;26502;51.886;15.604;2024-01-25T07:14:53;100750.96;;;6.69;65.04
40794;BME280;26502;51.886;15.604;2024-01-25T07:20:19;100753.61;;;6.69;65.20
40794;BME280;26502;51.886;15.604;2024-01-25T07:25:45;100756.09;;;6.69;65.17
40794;BME280;26502;51.886;15.604;2024-01-25T07:31:11;100782.70;;;6.71;65.27
40794;BME280;26502;51.886;15.604;2024-01-25T07:36:37;100782.90;;;6.70;65.54
40794;BME280;26502;51.886;15.604;2024-01-25T07:42:04;100787.20;;;6.66;65.62
40794;BME280;26502;51.886;15.604;2024-01-25T07:47:30;100796.59;;;6.63;65.85
40794;BME280;26502;51.886;15.604;2024-01-25T07:52:56;100793.01;;;6.67;65.71
40794;BME280;26502;51.886;15.604;2024-01-25T07:58:25;100798.55;;;6.63;65.95
40794;BME280;26502;51.886;15.604;2024-01-25T08:03:55;100804.52;;;6.64;65.91
40794;BME280;26502;51.886;15.604;2024-01-25T08:09:21;100788.77;;;6.67;65.90
40794;BME280;26502;51.886;15.604;2024-01-25T08:14:48;100791.17;;;6.71;65.90
40794;BME280;26502;51.886;15.604;2024-01-25T08:20:14;100799.89;;;6.78;65.32
40794;BME280;26502;51.886;15.604;2024-01-25T08:25:40;100801.58;;;6.84;65.31
40794;BME280;26502;51.886;15.604;2024-01-25T08:31:06;100815.29;;;6.88;65.28
40794;BME280;26502;51.886;15.604;2024-01-25T08:36:33;100826.58;;;6.89;65.17
40794;BME280;26502;51.886;15.604;2024-01-25T08:41:59;100824.98;;;6.89;64.92
40794;BME280;26502;51.886;15.604;2024-01-25T08:47:30;100837.78;;;6.95;64.78
40794;BME280;26502;51.886;15.604;2024-01-25T08:52:57;100840.21;;;6.98;64.88
40794;BME280;26502;51.886;15.604;2024-01-25T08:58:23;100852.11;;;7.04;64.56
40794;BME280;26502;51.886;15.604;2024-01-25T09:03:49;100860.70;;;7.10;63.74
40794;BME280;26502;51.886;15.604;2024-01-25T09:09:15;100871.45;;;7.12;64.19
40794;BME280;26502;51.886;15.604;2024-01-25T09:14:41;100874.94;;;7.14;63.77
40794;BME280;26502;51.886;15.604;2024-01-25T09:20:12;100884.27;;;7.17;63.64
40794;BME280;26502;51.886;15.604;2024-01-25T09:25:38;100882.98;;;7.19;63.55
40794;BME280;26502;51.886;15.604;2024-01-25T09:31:06;100895.45;;;7.24;63.69
40794;BME280;26502;51.886;15.604;2024-01-25T09:36:32;100898.08;;;7.26;63.47
40794;BME280;26502;51.886;15.604;2024-01-25T09:41:58;100906.87;;;7.28;63.30
40794;BME280;26502;51.886;15.604;2024-01-25T09:47:24;100919.45;;;7.26;63.26
40794;BME280;26502;51.886;15.604;2024-01-25T09:52:54;100927.92;;;7.26;63.26
40794;BME280;26502;51.886;15.604;2024-01-25T09:58:26;100930.16;;;7.30;63.15
40794;BME280;26502;51.886;15.604;2024-01-25T10:03:56;100944.00;;;7.38;62.94
40794;BME280;26502;51.886;15.604;2024-01-25T10:09:22;100950.26;;;7.45;63.02
40794;BME280;26502;51.886;15.604;2024-01-25T10:14:48;100964.66;;;7.51;62.68
40794;BME280;26502;51.886;15.604;2024-01-25T10:20:18;100971.76;;;7.50;62.96
40794;BME280;26502;51.886;15.604;2024-01-25T10:25:46;100967.34;;;7.49;62.95
40794;BME280;26502;51.886;15.604;2024-01-25T10:31:12;100961.86;;;7.49;63.25
40794;BME280;26502;51.886;15.604;2024-01-25T10:36:39;100978.64;;;7.49;62.95
40794;BME280;26502;51.886;15.604;2024-01-25T10:42:06;100980.96;;;7.48;62.97
40794;BME280;26502;51.886;15.604;2024-01-25T10:47:33;100977.90;;;7.52;62.92
40794;BME280;26502;51.886;15.604;2024-01-25T10:52:59;100988.80;;;7.56;62.94
40794;BME280;26502;51.886;15.604;2024-01-25T10:58:31;100997.59;;;7.60;63.00
40794;BME280;26502;51.886;15.604;2024-01-25T11:03:57;101005.01;;;7.59;62.57
40794;BME280;26502;51.886;15.604;2024-01-25T11:09:25;101005.56;;;7.58;62.82
40794;BME280;26502;51.886;15.604;2024-01-25T11:14:56;101009.27;;;7.57;63.04
40794;BME280;26502;51.886;15.604;2024-01-25T11:20:26;101016.83;;;7.60;63.28
40794;BME280;26502;51.886;15.604;2024-01-25T11:25:56;101018.76;;;7.49;63.44
40794;BME280;26502;51.886;15.604;2024-01-25T11:31:23;101017.98;;;7.42;63.51
40794;BME280;26502;51.886;15.604;2024-01-25T11:36:49;101030.65;;;7.47;63.05
40794;BME280;26502;51.886;15.604;2024-01-25T11:42:15;101035.23;;;7.47;62.52
40794;BME280;26502;51.886;15.604;2024-01-25T11:47:42;101040.11;;;7.39;63.02
40794;BME280;26502;51.886;15.604;2024-01-25T11:53:08;101035.88;;;7.38;62.96
40794;BME280;26502;51.886;15.604;2024-01-25T11:58:34;101035.63;;;7.45;62.60
40794;BME280;26502;51.886;15.604;2024-01-25T12:04:01;101046.33;;;7.49;62.56
40794;BME280;26502;51.886;15.604;2024-01-25T12:09:27;101051.77;;;7.40;62.74
40794;BME280;26502;51.886;15.604;2024-01-25T12:14:58;101046.05;;;7.31;63.00
40794;BME280;26502;51.886;15.604;2024-01-25T12:20:27;101050.66;;;7.30;63.11
40794;BME280;26502;51.886;15.604;2024-01-25T12:25:53;101055.02;;;7.33;62.98
40794;BME280;26502;51.886;15.604;2024-01-25T12:31:20;101049.15;;;7.37;62.64
40794;BME280;26502;51.886;15.604;2024-01-25T12:36:45;101051.25;;;7.39;62.95
40794;BME280;26502;51.886;15.604;2024-01-25T12:42:11;101059.91;;;7.38;62.94
40794;BME280;26502;51.886;15.604;2024-01-25T12:47:37;101063.92;;;7.43;63.27
40794;BME280;26502;51.886;15.604;2024-01-25T12:53:04;101066.65;;;7.49;63.31
40794;BME280;26502;51.886;15.604;2024-01-25T12:58:31;101075.45;;;7.65;62.98
40794;BME280;26502;51.886;15.604;2024-01-25T13:03:57;101083.52;;;7.70;62.25
40794;BME280;26502;51.886;15.604;2024-01-25T13:09:24;101083.73;;;7.68;62.30
40794;BME280;26502;51.886;15.604;2024-01-25T13:14:50;101092.95;;;7.65;61.81
40794;BME280;26502;51.886;15.604;2024-01-25T13:20:16;101091.46;;;7.59;61.86
40794;BME280;26502;51.886;15.604;2024-01-25T13:25:42;101092.86;;;7.72;61.71
40794;BME280;26502;51.886;15.604;2024-01-25T13:31:08;101102.88;;;7.88;61.18
40794;BME280;26502;51.886;15.604;2024-01-25T13:36:34;101101.99;;;8.24;60.67
40794;BME280;26502;51.886;15.604;2024-01-25T13:42:00;101114.21;;;8.23;60.21
40794;BME280;26502;51.886;15.604;2024-01-25T13:47:26;101118.17;;;8.41;59.46
40794;BME280;26502;51.886;15.604;2024-01-25T13:52:53;101122.60;;;8.29;59.38
40794;BME280;26502;51.886;15.604;2024-01-25T13:58:19;101143.79;;;8.10;58.44
40794;BME280;26502;51.886;15.604;2024-01-25T14:03:45;101149.27;;;7.97;58.77
40794;BME280;26502;51.886;15.604;2024-01-25T14:09:12;101147.00;;;7.83;58.86
40794;BME280;26502;51.886;15.604;2024-01-25T14:14:40;101160.29;;;7.66;59.11
40794;BME280;26502;51.886;15.604;2024-01-25T14:20:08;101164.67;;;7.55;58.90
40794;BME280;26502;51.886;15.604;2024-01-25T14:25:34;101164.77;;;7.46;58.66
40794;BME280;26502;51.886;15.604;2024-01-25T14:31:00;101182.52;;;7.40;58.82
40794;BME280;26502;51.886;15.604;2024-01-25T14:36:26;101191.40;;;7.36;59.27
40794;BME280;26502;51.886;15.604;2024-01-25T14:41:54;101202.36;;;7.36;59.32
40794;BME280;26502;51.886;15.604;2024-01-25T14:47:20;101208.55;;;7.34;59.08
40794;BME280;26502;51.886;15.604;2024-01-25T14:52:55;101216.71;;;7.32;59.36
40794;BME280;26502;51.886;15.604;2024-01-25T14:58:21;101221.86;;;7.30;59.57
40794;BME280;26502;51.886;15.604;2024-01-25T15:03:48;101236.55;;;7.27;59.84
40794;BME280;26502;51.886;15.604;2024-01-25T15:09:14;101246.80;;;7.26;60.12
40794;BME280;26502;51.886;15.604;2024-01-25T15:14:42;101255.81;;;7.26;60.41
40794;BME280;26502;51.886;15.604;2024-01-25T15:20:10;101256.55;;;7.22;60.43
40794;BME280;26502;51.886;15.604;2024-01-25T15:25:36;101264.19;;;7.18;60.69
40794;BME280;26502;51.886;15.604;2024-01-25T15:31:02;101265.45;;;7.16;60.86
40794;BME280;26502;51.886;15.604;2024-01-25T15:36:28;101267.42;;;7.13;60.94
40794;BME280;26502;51.886;15.604;2024-01-25T15:41:54;101268.88;;;7.09;61.06
40794;BME280;26502;51.886;15.604;2024-01-25T15:47:20;101277.36;;;7.06;61.16
40794;BME280;26502;51.886;15.604;2024-01-25T15:52:46;101288.84;;;7.06;61.30
40794;BME280;26502;51.886;15.604;2024-01-25T15:58:12;101299.44;;;7.07;61.34
40794;BME280;26502;51.886;15.604;2024-01-25T16:03:38;101304.77;;;7.04;61.43
40794;BME280;26502;51.886;15.604;2024-01-25T16:09:04;101306.88;;;7.03;61.57
40794;BME280;26502;51.886;15.604;2024-01-25T16:14:31;101314.66;;;7.02;61.81
40794;BME280;26502;51.886;15.604;2024-01-25T16:19:57;101321.38;;;7.01;61.83
40794;BME280;26502;51.886;15.604;2024-01-25T16:25:23;101323.88;;;6.97;61.88
40794;BME280;26502;51.886;15.604;2024-01-25T16:30:49;101324.43;;;6.94;62.16
40794;BME280;26502;51.886;15.604;2024-01-25T16:36:16;101334.52;;;6.92;62.24
40794;BME280;26502;51.886;15.604;2024-01-25T16:41:43;101343.18;;;6.90;62.40
40794;BME280;26502;51.886;15.604;2024-01-25T16:47:09;101341.42;;;6.88;62.38
40794;BME280;26502;51.886;15.604;2024-01-25T16:52:35;101344.45;;;6.84;62.59
40794;BME280;26502;51.886;15.604;2024-01-25T16:58:02;101355.05;;;6.82;62.81
40794;BME280;26502;51.886;15.604;2024-01-25T17:03:28;101367.09;;;6.78;62.94
40794;BME280;26502;51.886;15.604;2024-01-25T17:08:56;101373.45;;;6.75;63.18
40794;BME280;26502;51.886;15.604;2024-01-25T17:14:22;101378.23;;;6.73;63.37
40794;BME280;26502;51.886;15.604;2024-01-25T17:19:48;101382.65;;;6.72;63.47
40794;BME280;26502;51.886;15.604;2024-01-25T17:25:15;101387.26;;;6.70;63.58
40794;BME280;26502;51.886;15.604;2024-01-25T17:30:41;101386.21;;;6.66;63.82
40794;BME280;26502;51.886;15.604;2024-01-25T17:36:08;101382.70;;;6.62;63.91
40794;BME280;26502;51.886;15.604;2024-01-25T17:41:35;101386.59;;;6.59;64.17
40794;BME280;26502;51.886;15.604;2024-01-25T17:47:01;101386.45;;;6.53;64.29
40794;BME280;26502;51.886;15.604;2024-01-25T17:52:27;101389.65;;;6.49;64.54
40794;BME280;26502;51.886;15.604;2024-01-25T17:57:53;101394.27;;;6.42;64.69
40794;BME280;26502;51.886;15.604;2024-01-25T18:03:20;101395.52;;;6.33;65.00
40794;BME280;26502;51.886;15.604;2024-01-25T18:08:46;101398.52;;;6.32;65.23
40794;BME280;26502;51.886;15.604;2024-01-25T18:14:12;101396.24;;;6.29;65.38
40794;BME280;26502;51.886;15.604;2024-01-25T18:19:38;101400.33;;;6.22;65.51
40794;BME280;26502;51.886;15.604;2024-01-25T18:25:05;101402.29;;;6.15;65.72
40794;BME280;26502;51.886;15.604;2024-01-25T18:30:32;101405.12;;;6.07;65.81
40794;BME280;26502;51.886;15.604;2024-01-25T18:35:58;101410.08;;;6.04;65.98
40794;BME280;26502;51.886;15.604;2024-01-25T18:41:24;101411.65;;;6.05;66.22
40794;BME280;26502;51.886;15.604;2024-01-25T18:46:50;101417.30;;;6.07;66.32
40794;BME280;26502;51.886;15.604;2024-01-25T18:52:17;101418.69;;;6.08;66.43
40794;BME280;26502;51.886;15.604;2024-01-25T18:57:44;101429.27;;;6.09;66.50
40794;BME280;26502;51.886;15.604;2024-01-25T19:03:12;101435.45;;;6.10;66.48
40794;BME280;26502;51.886;15.604;2024-01-25T19:08:40;101435.79;;;6.14;66.60
40794;BME280;26502;51.886;15.604;2024-01-25T19:14:06;101430.48;;;6.15;66.66
40794;BME280;26502;51.886;15.604;2024-01-25T19:19:32;101432.27;;;6.14;66.72
40794;BME280;26502;51.886;15.604;2024-01-25T19:24:58;101438.09;;;6.15;66.74
40794;BME280;26502;51.886;15.604;2024-01-25T19:30:24;101442.85;;;6.14;66.79
40794;BME280;26502;51.886;15.604;2024-01-25T19:35:50;101445.32;;;6.11;66.80
40794;BME280;26502;51.886;15.604;2024-01-25T19:41:17;101444.61;;;6.09;66.81
40794;BME280;26502;51.886;15.604;2024-01-25T19:46:43;101452.73;;;6.08;66.85
40794;BME280;26502;51.886;15.604;2024-01-25T19:52:10;101456.27;;;6.05;66.88
40794;BME280;26502;51.886;15.604;2024-01-25T19:57:37;101461.20;;;6.02;67.01
40794;BME280;26502;51.886;15.604;2024-01-25T20:03:08;101461.39;;;5.99;66.92
40794;BME280;26502;51.886;15.604;2024-01-25T20:08:36;101457.12;;;5.95;67.01
40794;BME280;26502;51.886;15.604;2024-01-25T20:14:03;101460.30;;;5.90;67.03
40794;BME280;26502;51.886;15.604;2024-01-25T20:19:29;101465.41;;;5.88;67.22
40794;BME280;26502;51.886;15.604;2024-01-25T20:24:55;101468.41;;;5.89;67.20
40794;BME280;26502;51.886;15.604;2024-01-25T20:30:21;101466.46;;;5.89;67.19
40794;BME280;26502;51.886;15.604;2024-01-25T20:35:48;101469.29;;;5.88;67.22
40794;BME280;26502;51.886;15.604;2024-01-25T20:41:14;101470.00;;;5.82;67.19
40794;BME280;26502;51.886;15.604;2024-01-25T20:46:40;101470.36;;;5.78;67.22
40794;BME280;26502;51.886;15.604;2024-01-25T20:52:09;101476.17;;;5.76;67.27
40794;BME280;26502;51.886;15.604;2024-01-25T20:57:35;101477.94;;;5.75;67.30
40794;BME280;26502;51.886;15.604;2024-01-25T21:03:05;101485.86;;;5.75;67.33
40794;BME280;26502;51.886;15.604;2024-01-25T21:08:32;101489.91;;;5.77;67.36
40794;BME280;26502;51.886;15.604;2024-01-25T21:14:00;101491.69;;;5.77;67.43
40794;BME280;26502;51.886;15.604;2024-01-25T21:19:27;101498.90;;;5.77;67.37
40794;BME280;26502;51.886;15.604;2024-01-25T21:24:55;101501.91;;;5.74;67.45
40794;BME280;26502;51.886;15.604;2024-01-25T21:30:21;101508.79;;;5.75;67.55
40794;BME280;26502;51.886;15.604;2024-01-25T21:35:47;101521.29;;;5.75;67.65
40794;BME280;26502;51.886;15.604;2024-01-25T21:41:13;101521.47;;;5.73;67.77
40794;BME280;26502;51.886;15.604;2024-01-25T21:46:39;101527.27;;;5.71;67.82
40794;BME280;26502;51.886;15.604;2024-01-25T21:52:06;101525.52;;;5.69;67.92
40794;BME280;26502;51.886;15.604;2024-01-25T21:57:32;101528.67;;;5.64;68.10
40794;BME280;26502;51.886;15.604;2024-01-25T22:02:58;101529.56;;;5.63;68.12
40794;BME280;26502;51.886;15.604;2024-01-25T22:08:24;101531.48;;;5.58;68.32
40794;BME280;26502;51.886;15.604;2024-01-25T22:13:51;101527.61;;;5.52;68.44
40794;BME280;26502;51.886;15.604;2024-01-25T22:19:19;101526.70;;;5.44;68.51
40794;BME280;26502;51.886;15.604;2024-01-25T22:24:45;101524.05;;;5.36;68.72
40794;BME280;26502;51.886;15.604;2024-01-25T22:30:13;101521.40;;;5.34;68.88
40794;BME280;26502;51.886;15.604;2024-01-25T22:35:40;101529.66;;;5.31;69.13
40794;BME280;26502;51.886;15.604;2024-01-25T22:41:06;101535.48;;;5.31;69.15
40794;BME280;26502;51.886;15.604;2024-01-25T22:46:32;101532.47;;;5.29;69.22
40794;BME280;26502;51.886;15.604;2024-01-25T22:51:58;101532.65;;;5.29;69.37
40794;BME280;26502;51.886;15.604;2024-01-25T22:57:26;101537.77;;;5.30;69.52
40794;BME280;26502;51.886;15.604;2024-01-25T23:02:52;101540.92;;;5.28;69.65
40794;BME280;26502;51.886;15.604;2024-01-25T23:08:18;101546.39;;;5.29;69.89
40794;BME280;26502;51.886;15.604;2024-01-25T23:13:44;101550.63;;;5.30;69.96
40794;BME280;26502;51.886;15.604;2024-01-25T23:19:11;101547.80;;;5.29;70.13
40794;BME280;26502;51.886;15.604;2024-01-25T23:24:36;101549.39;;;5.28;70.23
40794;BME280;26502;51.886;15.604;2024-01-25T23:30:03;101544.10;;;5.28;70.49
40794;BME280;26502;51.886;15.604;2024-01-25T23:35:29;101547.96;;;5.26;70.69
40794;BME280;26502;51.886;15.604;2024-01-25T23:40:55;101547.26;;;5.24;70.88
40794;BME280;26502;51.886;15.604;2024-01-25T23:46:21;101538.09;;;5.24;70.89
40794;BME280;26502;51.886;15.604;2024-01-25T23:51:48;101546.55;;;5.22;70.92
40794;BME280;26502;51.886;15.604;2024-01-25T23:57:14;101548.48;;;5.19;71.37
